createdAt,value
2023-11-20T00:00:43.372Z,95607.75
2023-11-20T00:03:11.377Z,95606.94
2023-11-20T00:05:40.712Z,95598.53
2023-11-20T00:08:08.540Z,95592.50
2023-11-20T00:10:40.115Z,95591.28
2023-11-20T00:13:08.462Z,95586.28
2023-11-20T00:15:37.996Z,95582.47
2023-11-20T00:18:06.327Z,95574.06
2023-11-20T00:20:34.283Z,95582.47
2023-11-20T00:23:03.496Z,95582.06
2023-11-20T00:25:31.300Z,95574.88
2023-11-20T00:27:59.149Z,95566.44
2023-11-20T00:30:27.626Z,95572.47
2023-11-20T00:32:55.593Z,95563.22
2023-11-20T00:35:23.481Z,95565.66
2023-11-20T00:37:51.321Z,95560.81
2023-11-20T00:40:21.141Z,95560.81
2023-11-20T00:42:48.979Z,95558.81
2023-11-20T00:45:17.003Z,95556.41
2023-11-20T00:47:44.881Z,95552.41
2023-11-20T00:50:13.145Z,95547.19
2023-11-20T00:52:41.026Z,95549.22
2023-11-20T00:55:12.452Z,95547.97
2023-11-20T00:57:42.276Z,95551.41
2023-11-20T01:00:12.948Z,95553.59
2023-11-20T01:02:41.887Z,95558.13
2023-11-20T01:05:10.748Z,95553.66
2023-11-20T01:07:38.612Z,95553.94
2023-11-20T01:10:07.933Z,95564.91
2023-11-20T01:12:35.965Z,95553.06
2023-11-20T01:15:08.609Z,95553.50
2023-11-20T01:17:37.068Z,95553.19
2023-11-20T01:20:05.567Z,95552.41
2023-11-20T01:22:33.784Z,95553.25
2023-11-20T01:25:01.896Z,95548.88
2023-11-20T01:27:29.963Z,95554.53
2023-11-20T01:29:58.531Z,95559.53
2023-11-20T01:32:27.777Z,95561.34
2023-11-20T01:34:56.380Z,95565.78
2023-11-20T01:37:24.350Z,95558.97
2023-11-20T01:39:52.235Z,95560.97
2023-11-20T01:42:20.468Z,95549.53
2023-11-20T01:44:48.303Z,95550.91
2023-11-20T01:47:16.225Z,95544.09
2023-11-20T01:49:45.539Z,95547.50
2023-11-20T01:52:14.147Z,95548.09
2023-11-20T01:54:42.588Z,95550.91
2023-11-20T01:57:12.016Z,95541.69
2023-11-20T01:59:41.116Z,95533.28
2023-11-20T02:02:10.816Z,95540.53
2023-11-20T02:04:40.430Z,95528.50
2023-11-20T02:07:10.019Z,95528.50
2023-11-20T02:09:38.069Z,95526.09
2023-11-20T02:12:07.982Z,95514.88
2023-11-20T02:14:35.888Z,95518.47
2023-11-20T02:17:03.807Z,95513.69
2023-11-20T02:19:31.704Z,95508.47
2023-11-20T02:21:59.812Z,95515.66
2023-11-20T02:24:29.056Z,95512.09
2023-11-20T02:27:07.862Z,95520.06
2023-11-20T02:29:56.052Z,95515.06
2023-11-20T02:32:24.801Z,95509.25
2023-11-20T02:34:52.885Z,95510.69
2023-11-20T02:37:20.774Z,95510.09
2023-11-20T02:39:52.259Z,95499.66
2023-11-20T02:42:21.133Z,95503.28
2023-11-20T02:44:49.162Z,95508.72
2023-11-20T02:47:18.652Z,95505.31
2023-11-20T02:49:46.543Z,95509.34
2023-11-20T02:52:16.717Z,95506.13
2023-11-20T02:54:45.510Z,95499.72
2023-11-20T02:57:13.611Z,95496.31
2023-11-20T02:59:41.500Z,95488.50
2023-11-20T03:02:09.304Z,95495.34
2023-11-20T03:04:38.841Z,95486.50
2023-11-20T03:07:08.140Z,95494.16
2023-11-20T03:09:36.093Z,95488.78
2023-11-20T03:14:33.207Z,95482.19
2023-11-20T03:17:01.154Z,95478.16
2023-11-20T03:19:29.946Z,95473.72
2023-11-20T03:21:59.233Z,95468.13
2023-11-20T03:24:27.705Z,95468.13
2023-11-20T03:26:55.492Z,95473.34
2023-11-20T03:29:23.319Z,95473.72
2023-11-20T03:31:51.136Z,95474.94
2023-11-20T03:34:18.990Z,95473.78
2023-11-20T03:36:46.865Z,95467.97
2023-11-20T03:39:16.069Z,95479.38
2023-11-20T03:41:43.874Z,95479.56
2023-11-20T03:44:11.749Z,95476.53
2023-11-20T03:46:39.712Z,95476.13
2023-11-20T03:49:07.759Z,95479.34
2023-11-20T03:51:35.883Z,95485.38
2023-11-20T03:54:04.979Z,95484.56
2023-11-20T03:56:34.475Z,95482.97
2023-11-20T03:59:02.481Z,95471.72
2023-11-20T04:01:30.420Z,95464.91
2023-11-20T04:03:58.410Z,95468.50
2023-11-20T04:06:26.334Z,95466.13
2023-11-20T04:08:54.295Z,95454.88
2023-11-20T04:11:22.170Z,95464.91
2023-11-20T04:13:50.385Z,95460.84
2023-11-20T04:16:18.683Z,95461.69
2023-11-20T04:18:46.999Z,95463.72
2023-11-20T04:21:15.415Z,95460.50
2023-11-20T04:23:43.689Z,95471.34
2023-11-20T04:26:11.614Z,95463.53
2023-11-20T04:28:39.462Z,95459.72
2023-11-20T04:31:08.743Z,95466.16
2023-11-20T04:33:37.144Z,95454.94
2023-11-20T04:36:05.570Z,95457.38
2023-11-20T04:38:34.002Z,95464.19
2023-11-20T04:41:01.942Z,95465.00
2023-11-20T04:43:29.790Z,95467.00
2023-11-20T04:45:57.627Z,95466.19
2023-11-20T04:48:26.977Z,95465.41
2023-11-20T04:50:54.795Z,95463.81
2023-11-20T04:53:25.123Z,95471.03
2023-11-20T04:55:53.188Z,95462.63
2023-11-20T04:58:23.281Z,95450.59
2023-11-20T05:00:51.737Z,95447.41
2023-11-20T05:03:20.542Z,95450.59
2023-11-20T05:05:49.858Z,95445.38
2023-11-20T05:08:17.692Z,95438.16
2023-11-20T05:10:45.491Z,95436.16
2023-11-20T05:13:17.827Z,95442.78
2023-11-20T05:15:47.047Z,95441.41
2023-11-20T05:18:15.008Z,95437.56
2023-11-20T05:20:42.863Z,95441.44
2023-11-20T05:23:12.753Z,95435.00
2023-11-20T05:25:40.575Z,95440.22
2023-11-20T05:28:08.424Z,95430.22
2023-11-20T05:30:36.377Z,95433.41
2023-11-20T05:33:04.440Z,95439.63
2023-11-20T05:35:32.628Z,95434.81
2023-11-20T05:38:00.612Z,95434.63
2023-11-20T05:40:29.758Z,95427.00
2023-11-20T05:42:57.576Z,95431.03
2023-11-20T05:45:25.572Z,95428.44
2023-11-20T05:47:53.402Z,95429.03
2023-11-20T05:50:21.425Z,95423.81
2023-11-20T05:52:49.298Z,95425.03
2023-11-20T05:55:17.180Z,95420.22
2023-11-20T05:57:46.493Z,95424.41
2023-11-20T06:00:15.833Z,95426.22
2023-11-20T06:02:43.623Z,95422.22
2023-11-20T06:05:11.631Z,95425.84
2023-11-20T06:07:39.441Z,95432.63
2023-11-20T06:10:09.157Z,95437.44
2023-11-20T06:12:37.116Z,95428.63
2023-11-20T06:15:07.574Z,95427.41
2023-11-20T06:17:35.688Z,95431.00
2023-11-20T06:20:04.849Z,95426.97
2023-11-20T06:22:32.666Z,95424.97
2023-11-20T06:25:00.619Z,95423.53
2023-11-20T06:27:28.539Z,95417.91
2023-11-20T06:29:56.347Z,95423.72
2023-11-20T06:32:26.059Z,95421.69
2023-11-20T06:34:53.926Z,95428.53
2023-11-20T06:37:22.871Z,95434.66
2023-11-20T06:39:50.854Z,95442.94
2023-11-20T06:42:18.937Z,95434.34
2023-11-20T06:44:46.898Z,95435.88
2023-11-20T06:47:14.774Z,95431.25
2023-11-20T06:49:44.089Z,95429.78
2023-11-20T06:52:11.971Z,95428.00
2023-11-20T06:54:39.826Z,95426.19
2023-11-20T06:57:08.073Z,95423.44
2023-11-20T06:59:35.886Z,95423.84
2023-11-20T07:02:04.302Z,95425.28
2023-11-20T07:04:37.732Z,95430.44
2023-11-20T07:07:07.288Z,95421.81
2023-11-20T07:09:36.002Z,95426.41
2023-11-20T07:12:04.629Z,95425.81
2023-11-20T07:14:32.485Z,95424.38
2023-11-20T07:17:00.416Z,95426.97
2023-11-20T07:19:28.421Z,95435.38
2023-11-20T07:21:56.326Z,95443.38
2023-11-20T07:24:26.373Z,95437.34
2023-11-20T07:26:54.224Z,95446.56
2023-11-20T07:29:22.086Z,95446.94
2023-11-20T07:31:50.453Z,95426.88
2023-11-20T07:34:20.249Z,95435.09
2023-11-20T07:36:48.389Z,95435.28
2023-11-20T07:39:19.536Z,95434.44
2023-11-20T07:41:48.802Z,95435.22
2023-11-20T07:44:21.509Z,95430.38
2023-11-20T07:46:50.294Z,95439.16
2023-11-20T07:49:18.359Z,95433.34
2023-11-20T07:51:47.191Z,95431.34
2023-11-20T07:54:15.461Z,95433.53
2023-11-20T07:56:43.275Z,95425.91
2023-11-20T07:59:12.547Z,95424.88
2023-11-20T08:01:41.686Z,95427.50
2023-11-20T08:04:12.475Z,95433.88
2023-11-20T08:06:40.575Z,95423.44
2023-11-20T08:09:10.550Z,95421.44
2023-11-20T08:11:38.716Z,95426.22
2023-11-20T08:14:06.579Z,95418.97
2023-11-20T08:16:35.933Z,95419.03
2023-11-20T08:19:04.886Z,95418.81
2023-11-20T08:21:33.995Z,95413.06
2023-11-20T08:24:01.875Z,95413.88
2023-11-20T08:26:29.738Z,95407.81
2023-11-20T08:28:57.574Z,95411.38
2023-11-20T08:31:26.230Z,95406.63
2023-11-20T08:33:55.606Z,95411.16
2023-11-20T08:36:23.470Z,95416.97
2023-11-20T08:38:51.310Z,95413.50
2023-11-20T08:41:19.163Z,95412.59
2023-11-20T08:43:47.003Z,95416.16
2023-11-20T08:46:16.160Z,95412.84
2023-11-20T08:48:44.458Z,95415.22
2023-11-20T08:51:13.833Z,95418.41
2023-11-20T08:53:41.747Z,95414.78
2023-11-20T08:56:09.806Z,95413.94
2023-11-20T08:58:38.632Z,95416.25
2023-11-20T09:01:06.874Z,95418.63
2023-11-20T09:03:34.815Z,95418.19
2023-11-20T09:06:02.738Z,95415.38
2023-11-20T09:08:32.284Z,95417.75
2023-11-20T09:11:00.127Z,95403.69
2023-11-20T09:13:27.997Z,95403.69
2023-11-20T09:15:55.896Z,95396.22
2023-11-20T09:18:23.798Z,95399.00
2023-11-20T09:20:51.585Z,95396.59
2023-11-20T09:23:19.454Z,95385.56
2023-11-20T09:25:48.657Z,95405.03
2023-11-20T09:28:16.761Z,95404.38
2023-11-20T09:30:44.714Z,95393.13
2023-11-20T09:33:12.679Z,95389.06
2023-11-20T09:35:40.498Z,95391.25
2023-11-20T09:38:08.901Z,95403.56
2023-11-20T09:40:37.278Z,95392.69
2023-11-20T09:43:10.024Z,95386.16
2023-11-20T09:45:50.228Z,95386.03
2023-11-20T09:48:23.169Z,95387.19
2023-11-20T09:51:03.287Z,95383.69
2023-11-20T09:53:39.568Z,95385.47
2023-11-20T09:56:11.646Z,95388.28
2023-11-20T09:58:43.009Z,95375.81
2023-11-20T10:01:13.661Z,95372.06
2023-11-20T10:03:43.646Z,95373.41
2023-11-20T10:06:14.895Z,95374.75
2023-11-20T10:08:45.074Z,95369.09
2023-11-20T10:11:14.341Z,95365.81
2023-11-20T10:13:43.613Z,95364.13
2023-11-20T10:16:24.095Z,95363.31
2023-11-20T10:18:53.489Z,95353.44
2023-11-20T10:21:22.092Z,95351.09
2023-11-20T10:23:54.236Z,95347.47
2023-11-20T10:26:22.425Z,95347.34
2023-11-20T10:28:51.616Z,95344.28
2023-11-20T10:31:19.602Z,95345.31
2023-11-20T10:33:47.585Z,95347.75
2023-11-20T10:36:17.374Z,95335.25
2023-11-20T10:38:46.002Z,95336.84
2023-11-20T10:41:14.010Z,95330.28
2023-11-20T10:43:42.996Z,95328.69
2023-11-20T10:46:12.400Z,95326.91
2023-11-20T10:48:41.044Z,95323.03
2023-11-20T10:51:10.682Z,95313.59
2023-11-20T10:53:40.303Z,95307.22
2023-11-20T10:56:09.903Z,95301.41
2023-11-20T10:58:40.374Z,95289.91
2023-11-20T11:01:10.241Z,95289.69
2023-11-20T11:03:42.235Z,95278.75
2023-11-20T11:06:12.975Z,95280.25
2023-11-20T11:08:46.520Z,95272.50
2023-11-20T11:11:15.613Z,95272.50
2023-11-20T11:13:44.285Z,95265.88
2023-11-20T11:16:21.601Z,95256.56
2023-11-20T11:19:02.381Z,95254.50
2023-11-20T11:21:40.663Z,95252.06
2023-11-20T11:24:12.927Z,95253.75
2023-11-20T11:26:48.129Z,95241.56
2023-11-20T11:29:19.738Z,95239.97
2023-11-20T11:32:09.923Z,95236.00
2023-11-20T11:34:58.612Z,95227.00
2023-11-20T11:37:32.918Z,95229.63
2023-11-20T11:40:10.923Z,95207.88
2023-11-20T11:42:47.550Z,95207.06
2023-11-20T11:45:18.298Z,95201.34
2023-11-20T11:47:48.247Z,95197.06
2023-11-20T11:50:18.723Z,95188.72
2023-11-20T11:52:50.182Z,95189.75
2023-11-20T11:55:23.455Z,95178.50
2023-11-20T11:57:53.752Z,95188.19
2023-11-20T12:00:23.209Z,95176.09
2023-11-20T12:02:55.630Z,95181.81
2023-11-20T12:05:25.075Z,95184.44
2023-11-20T12:07:56.630Z,95180.50
2023-11-20T12:10:44.532Z,95173.06
2023-11-20T12:13:13.429Z,95158.81
2023-11-20T12:15:43.913Z,95163.09
2023-11-20T12:18:17.424Z,95156.75
2023-11-20T12:21:17.072Z,95153.56
2023-11-20T12:23:45.269Z,95146.75
2023-11-20T12:26:14.755Z,95141.50
2023-11-20T12:28:43.694Z,95141.50
2023-11-20T12:31:12.689Z,95142.44
2023-11-20T12:33:42.916Z,95151.34
2023-11-20T12:36:12.896Z,95144.28
2023-11-20T12:38:46.341Z,95142.13
2023-11-20T12:41:16.221Z,95160.34
2023-11-20T12:43:44.838Z,95160.94
2023-11-20T12:46:13.877Z,95153.19
2023-11-20T12:48:41.787Z,95136.53
2023-11-20T12:51:10.681Z,95137.69
2023-11-20T12:53:39.024Z,95121.97
2023-11-20T12:56:10.791Z,95122.53
2023-11-20T12:58:41.551Z,95121.03
2023-11-20T13:01:09.567Z,95121.34
2023-11-20T13:03:37.960Z,95124.53
2023-11-20T13:06:11.331Z,95110.06
2023-11-20T13:08:40.655Z,95113.72
2023-11-20T13:11:12.327Z,95120.06
2023-11-20T13:13:40.360Z,95114.34
2023-11-20T13:16:17.493Z,95114.84
2023-11-20T13:18:49.912Z,95122.59
2023-11-20T13:21:22.521Z,95108.31
2023-11-20T13:24:00.814Z,95099.22
2023-11-20T13:26:30.566Z,95100.91
2023-11-20T13:28:59.657Z,95110.22
2023-11-20T13:31:34.674Z,95092.28
2023-11-20T13:34:06.510Z,95091.81
2023-11-20T13:36:36.729Z,95093.41
2023-11-20T13:39:09.024Z,95085.94
2023-11-20T13:41:38.835Z,95093.53
2023-11-20T13:44:09.698Z,95094.00
2023-11-20T13:46:38.648Z,95086.59
2023-11-20T13:49:06.778Z,95090.81
2023-11-20T13:51:34.620Z,95083.91
2023-11-20T13:54:02.416Z,95077.63
2023-11-20T13:56:30.286Z,95066.50
2023-11-20T13:59:00.394Z,95064.44
2023-11-20T14:01:28.414Z,95064.59
2023-11-20T14:03:58.428Z,95073.16
2023-11-20T14:06:26.409Z,95063.63
2023-11-20T14:08:54.239Z,95062.03
2023-11-20T14:11:22.068Z,95049.59
2023-11-20T14:13:51.175Z,95054.44
2023-11-20T14:16:20.408Z,95050.47
2023-11-20T14:18:48.327Z,95047.28
2023-11-20T14:21:17.745Z,95046.50
2023-11-20T14:23:46.151Z,95041.19
2023-11-20T14:26:28.865Z,95046.97
2023-11-20T14:29:01.702Z,95042.56
2023-11-20T14:31:32.088Z,95044.22
2023-11-20T14:34:00.040Z,95054.91
2023-11-20T14:36:27.975Z,95049.13
2023-11-20T14:38:57.347Z,95045.94
2023-11-20T14:41:25.231Z,95046.28
2023-11-20T14:43:53.077Z,95031.22
2023-11-20T14:46:21.127Z,95030.28
2023-11-20T14:48:50.470Z,95034.28
2023-11-20T14:51:21.075Z,95026.31
2023-11-20T14:53:49.019Z,95015.66
2023-11-20T14:56:17.164Z,95022.41
2023-11-20T14:58:45.010Z,95018.63
2023-11-20T15:01:12.876Z,95027.50
2023-11-20T15:03:41.097Z,95024.81
2023-11-20T15:06:13.438Z,95017.97
2023-11-20T15:08:42.344Z,95019.47
2023-11-20T15:11:10.762Z,95013.69
2023-11-20T15:13:39.638Z,95010.03
2023-11-20T15:16:09.325Z,95005.59
2023-11-20T15:18:38.349Z,94996.88
2023-11-20T15:21:07.199Z,95000.97
2023-11-20T15:23:37.039Z,95008.72
2023-11-20T15:26:06.012Z,95012.34
2023-11-20T15:28:33.915Z,95009.63
2023-11-20T15:31:01.803Z,95001.22
2023-11-20T15:33:29.659Z,95000.53
2023-11-20T15:35:57.479Z,94998.50
2023-11-20T15:38:25.286Z,94994.38
2023-11-20T15:40:54.463Z,94984.41
2023-11-20T15:43:22.261Z,94978.38
2023-11-20T15:45:54.635Z,94978.59
2023-11-20T15:48:24.212Z,94980.41
2023-11-20T15:50:52.522Z,94984.84
2023-11-20T15:53:21.033Z,94983.94
2023-11-20T15:55:48.912Z,94977.28
2023-11-20T15:58:18.098Z,94970.56
2023-11-20T16:00:45.943Z,94966.91
2023-11-20T16:03:18.936Z,94966.13
2023-11-20T16:05:47.205Z,94964.19
2023-11-20T16:08:15.085Z,94959.91
2023-11-20T16:10:42.939Z,94960.91
2023-11-20T16:13:10.836Z,94968.31
2023-11-20T16:15:40.296Z,94965.13
2023-11-20T16:18:10.777Z,94972.84
2023-11-20T16:20:38.668Z,94973.78
2023-11-20T16:23:07.230Z,94962.19
2023-11-20T16:25:43.090Z,94956.63
2023-11-20T16:28:15.780Z,94956.75
2023-11-20T16:30:45.766Z,94946.28
2023-11-20T16:33:13.634Z,94953.09
2023-11-20T16:35:41.453Z,94947.88
2023-11-20T16:38:09.413Z,94947.31
2023-11-20T16:40:37.439Z,94950.38
2023-11-20T16:43:05.647Z,94964.47
2023-11-20T16:45:33.732Z,94968.09
2023-11-20T16:48:02.978Z,94964.94
2023-11-20T16:50:31.468Z,94960.97
2023-11-20T16:52:59.323Z,94965.16
2023-11-20T16:55:27.165Z,94969.03
2023-11-20T16:57:55.025Z,94962.66
2023-11-20T17:00:23.673Z,94962.31
2023-11-20T17:02:51.785Z,94968.31
2023-11-20T17:05:21.126Z,94981.06
2023-11-20T17:07:49.652Z,94966.53
2023-11-20T17:10:17.678Z,94976.97
2023-11-20T17:12:45.545Z,94984.69
2023-11-20T17:15:14.382Z,94988.53
2023-11-20T17:17:42.215Z,94990.38
2023-11-20T17:20:12.618Z,94980.72
2023-11-20T17:22:41.960Z,94996.03
2023-11-20T17:25:10.292Z,94994.44
2023-11-20T17:27:38.146Z,95006.94
2023-11-20T17:30:07.409Z,94998.88
2023-11-20T17:32:35.432Z,94992.97
2023-11-20T17:35:03.835Z,94994.56
2023-11-20T17:37:31.747Z,95001.38
2023-11-20T17:40:01.003Z,95005.34
2023-11-20T17:42:28.873Z,95011.81
2023-11-20T17:44:56.714Z,95011.03
2023-11-20T17:47:24.526Z,95019.88
2023-11-20T17:49:52.343Z,95026.34
2023-11-20T17:52:20.219Z,95024.88
2023-11-20T17:54:48.499Z,95021.66
2023-11-20T17:57:19.044Z,95015.88
2023-11-20T17:59:47.371Z,95015.31
2023-11-20T18:02:15.412Z,95015.75
2023-11-20T18:04:43.490Z,95017.69
2023-11-20T18:07:11.458Z,95023.22
2023-11-20T18:09:39.352Z,95025.25
2023-11-20T18:12:08.127Z,95033.31
2023-11-20T18:14:37.344Z,95023.78
2023-11-20T18:17:06.113Z,95031.94
2023-11-20T18:19:34.131Z,95023.66
2023-11-20T18:22:02.033Z,95026.38
2023-11-20T18:24:29.843Z,95034.56
2023-11-20T18:26:57.677Z,95036.13
2023-11-20T18:29:25.555Z,95027.75
2023-11-20T18:31:54.983Z,95014.03
2023-11-20T18:34:22.860Z,95015.84
2023-11-20T18:36:50.873Z,95014.38
2023-11-20T18:39:18.713Z,95016.41
2023-11-20T18:41:46.531Z,95003.81
2023-11-20T18:44:14.778Z,95004.38
2023-11-20T18:46:42.673Z,95015.59
2023-11-20T18:49:11.896Z,95016.06
2023-11-20T18:51:39.738Z,95016.41
2023-11-20T18:54:08.074Z,95013.94
2023-11-20T18:56:35.954Z,95019.72
2023-11-20T18:59:03.775Z,95016.31
2023-11-20T19:01:31.738Z,95015.53
2023-11-20T19:04:01.814Z,95023.34
2023-11-20T19:06:31.110Z,95025.97
2023-11-20T19:08:59.025Z,95029.59
2023-11-20T19:11:26.904Z,95032.78
2023-11-20T19:13:54.714Z,95022.34
2023-11-20T19:16:22.583Z,95018.13
2023-11-20T19:18:51.177Z,95017.13
2023-11-20T19:21:19.007Z,95014.28
2023-11-20T19:23:48.165Z,95008.28
2023-11-20T19:26:16.023Z,95003.06
2023-11-20T19:28:44.541Z,95002.59
2023-11-20T19:31:12.487Z,94997.38
2023-11-20T19:33:40.401Z,94997.38
2023-11-20T19:36:08.927Z,94988.88
2023-11-20T19:38:38.968Z,94990.91
2023-11-20T19:41:08.944Z,94988.53
2023-11-20T19:43:37.544Z,94982.06
2023-11-20T19:46:06.664Z,94978.88
2023-11-20T19:48:35.407Z,94979.69
2023-11-20T19:51:04.823Z,94991.69
2023-11-20T19:53:32.778Z,94992.59
2023-11-20T19:56:00.651Z,94994.84
2023-11-20T19:58:29.844Z,94991.91
2023-11-20T20:00:57.984Z,94992.03
2023-11-20T20:03:26.784Z,94989.78
2023-11-20T20:05:54.697Z,94986.94
2023-11-20T20:08:23.382Z,94985.00
2023-11-20T20:10:52.066Z,94986.38
2023-11-20T20:13:21.684Z,94980.47
2023-11-20T20:15:50.958Z,94978.72
2023-11-20T20:18:20.011Z,94982.94
2023-11-20T20:20:48.271Z,94971.72
2023-11-20T20:23:18.500Z,94970.38
2023-11-20T20:25:46.402Z,94971.97
2023-11-20T20:28:14.614Z,94967.66
2023-11-20T20:30:49.751Z,94969.34
2023-11-20T20:33:19.073Z,94975.81
2023-11-20T20:35:46.919Z,94968.00
2023-11-20T20:38:16.533Z,94963.75
2023-11-20T20:40:44.794Z,94967.38
2023-11-20T20:43:13.162Z,94967.06
2023-11-20T20:45:41.245Z,94973.06
2023-11-20T20:48:09.184Z,94965.22
2023-11-20T20:50:38.931Z,94977.84
2023-11-20T20:53:07.497Z,94972.59
2023-11-20T20:55:36.606Z,94968.97
2023-11-20T20:58:04.509Z,94974.66
2023-11-20T21:00:36.661Z,94967.84
2023-11-20T21:03:04.863Z,94966.25
2023-11-20T21:05:32.704Z,94961.50
2023-11-20T21:08:01.951Z,94955.25
2023-11-20T21:10:29.874Z,94956.28
2023-11-20T21:12:57.841Z,94951.84
2023-11-20T21:15:25.952Z,94946.28
2023-11-20T21:17:53.909Z,94946.28
2023-11-20T21:20:22.313Z,94954.00
2023-11-20T21:22:50.197Z,94952.31
2023-11-20T21:25:21.441Z,94958.31
2023-11-20T21:27:51.060Z,94958.06
2023-11-20T21:30:19.134Z,94948.78
2023-11-20T21:32:47.073Z,94955.91
2023-11-20T21:35:15.240Z,94951.81
2023-11-20T21:37:43.282Z,94946.59
2023-11-20T21:40:12.263Z,94946.25
2023-11-20T21:42:41.687Z,94945.94
2023-11-20T21:45:10.747Z,94949.13
2023-11-20T21:47:38.731Z,94936.97
2023-11-20T21:50:09.356Z,94940.03
2023-11-20T21:52:38.757Z,94939.81
2023-11-20T21:55:07.933Z,94938.69
2023-11-20T21:57:36.089Z,94944.97
2023-11-20T22:00:06.796Z,94939.41
2023-11-20T22:02:34.751Z,94942.69
2023-11-20T22:05:06.054Z,94935.31
2023-11-20T22:07:34.020Z,94933.38
2023-11-20T22:10:02.081Z,94933.22
2023-11-20T22:12:29.959Z,94942.84
2023-11-20T22:14:58.158Z,94931.28
2023-11-20T22:17:27.938Z,94938.53
2023-11-20T22:19:56.620Z,94937.47
2023-11-20T22:22:24.751Z,94925.81
2023-11-20T22:24:52.693Z,94938.53
2023-11-20T22:27:21.040Z,94936.94
2023-11-20T22:29:49.473Z,94933.50
2023-11-20T22:32:18.060Z,94923.09
2023-11-20T22:34:58.231Z,94923.00
2023-11-20T22:37:35.080Z,94921.31
2023-11-20T22:40:08.693Z,94924.50
2023-11-20T22:42:36.881Z,94925.63
2023-11-20T22:45:05.307Z,94941.28
2023-11-20T22:47:33.133Z,94948.41
2023-11-20T22:50:02.344Z,94947.69
2023-11-20T22:52:30.209Z,94949.47
2023-11-20T22:54:58.059Z,94951.84
2023-11-20T22:57:25.864Z,94959.66
2023-11-20T22:59:53.708Z,94954.59
2023-11-20T23:02:22.603Z,94949.19
2023-11-20T23:04:50.957Z,94951.88
2023-11-20T23:07:20.252Z,94954.38
2023-11-20T23:09:48.427Z,94947.97
2023-11-20T23:12:16.653Z,94952.38
2023-11-20T23:14:45.346Z,94950.28
2023-11-20T23:17:13.244Z,94949.97
2023-11-20T23:19:41.093Z,94951.69
2023-11-20T23:22:08.963Z,94949.59
2023-11-20T23:24:39.541Z,94950.03
2023-11-20T23:27:09.280Z,94949.75
2023-11-20T23:29:37.944Z,94939.88
2023-11-20T23:32:06.771Z,94939.22
2023-11-20T23:34:34.633Z,94936.34
2023-11-20T23:37:02.525Z,94939.06
2023-11-20T23:39:30.400Z,94937.94
2023-11-20T23:41:59.548Z,94933.28
2023-11-20T23:44:27.347Z,94939.97
2023-11-20T23:46:55.397Z,94936.94
2023-11-20T23:49:23.277Z,94926.41
2023-11-20T23:51:51.140Z,94924.81
2023-11-20T23:54:18.935Z,94916.66
2023-11-20T23:56:46.768Z,94911.59
2023-11-20T23:59:16.076Z,94912.03
